Time;durP1;ratioP1;P1;durP2;ratioP2;P2;SDS_P1;SDS_P2;PMS_P1;PMS_P2;Temp;Humidity;BMP_temperature;BMP_pressure;BME280_temperature;BME280_humidity;BME280_pressure;Samples;Min_cycle;Max_cycle;Signal;HPM_P1;HPM_P2
2023/01/19 00:00:46;;;;;;;21.07;11.03;;;1.60;99.90;;;;;;5038303;28;20249;-58
2023/01/19 00:03:14;;;;;;;15.17;9.73;;;1.60;99.90;;;;;;5044330;28;20200;-46
2023/01/19 00:05:42;;;;;;;15.07;10.43;;;1.60;99.90;;;;;;5038191;28;20269;-59
2023/01/19 00:08:14;;;;;;;18.67;10.97;;;1.60;99.90;;;;;;5034807;28;20218;-48
2023/01/19 00:10:41;;;;;;;15.83;10.10;;;1.70;99.90;;;;;;5032718;28;20942;-51
2023/01/19 00:13:08;;;;;;;16.57;10.90;;;1.60;99.90;;;;;;5044713;28;20222;-52
2023/01/19 00:15:35;;;;;;;14.03;9.80;;;1.70;99.90;;;;;;5037223;28;20203;-58
2023/01/19 00:18:03;;;;;;;16.90;9.23;;;1.70;99.90;;;;;;5043415;28;20207;-50
2023/01/19 00:20:31;;;;;;;12.13;9.10;;;1.70;99.90;;;;;;5043254;28;20230;-60
2023/01/19 00:22:58;;;;;;;14.67;9.63;;;1.70;99.90;;;;;;5028244;28;20666;-52
2023/01/19 00:25:25;;;;;;;18.07;9.73;;;1.70;99.90;;;;;;5044741;28;20222;-60
2023/01/19 00:27:52;;;;;;;13.97;9.27;;;1.70;99.90;;;;;;5043747;28;20932;-56
2023/01/19 00:30:19;;;;;;;15.30;10.27;;;1.80;99.90;;;;;;5045695;28;20310;-55
2023/01/19 00:32:46;;;;;;;12.70;9.20;;;1.80;99.90;;;;;;5025392;28;20424;-55
2023/01/19 00:35:14;;;;;;;14.67;10.10;;;1.80;99.90;;;;;;5045626;28;20207;-49
2023/01/19 00:37:45;;;;;;;15.70;10.30;;;1.80;99.90;;;;;;5024127;28;20235;-46
2023/01/19 00:40:12;;;;;;;17.30;8.97;;;1.80;99.90;;;;;;5039585;28;20226;-46
2023/01/19 00:42:44;;;;;;;18.50;9.53;;;1.90;99.90;;;;;;5035966;28;20246;-48
2023/01/19 00:45:13;;;;;;;13.57;8.50;;;1.90;99.90;;;;;;5045734;28;20196;-51
2023/01/19 00:47:41;;;;;;;12.70;9.43;;;1.90;99.90;;;;;;5035468;28;20311;-46
2023/01/19 00:50:10;;;;;;;13.73;9.77;;;2.00;99.90;;;;;;5045542;28;20215;-46
2023/01/19 00:52:39;;;;;;;14.00;9.83;;;2.00;99.90;;;;;;5023856;28;20215;-58
2023/01/19 00:55:08;;;;;;;14.73;9.50;;;2.00;99.90;;;;;;5044784;28;20282;-48
2023/01/19 00:57:36;;;;;;;18.37;8.80;;;2.00;99.90;;;;;;5038764;28;20198;-58
2023/01/19 01:00:06;;;;;;;14.97;9.67;;;2.10;99.90;;;;;;5041964;28;20227;-45
2023/01/19 01:02:33;;;;;;;15.00;8.90;;;2.10;99.90;;;;;;5033414;28;20282;-59
2023/01/19 01:05:01;;;;;;;13.03;9.43;;;2.10;99.90;;;;;;5044822;28;20215;-43
2023/01/19 01:07:30;;;;;;;14.00;10.03;;;2.20;99.90;;;;;;5032141;28;20226;-59
2023/01/19 01:09:58;;;;;;;14.30;9.83;;;2.20;99.90;;;;;;5039290;28;20832;-43
2023/01/19 01:12:25;;;;;;;18.00;9.90;;;2.20;99.90;;;;;;5041024;28;20272;-58
2023/01/19 01:14:52;;;;;;;16.97;9.80;;;2.20;99.90;;;;;;5042960;28;20218;-49
2023/01/19 01:17:23;;;;;;;11.53;7.73;;;2.20;99.90;;;;;;5036052;28;20280;-57
2023/01/19 01:19:50;;;;;;;12.37;9.93;;;2.20;99.90;;;;;;5042030;28;20211;-46
2023/01/19 01:22:17;;;;;;;15.77;10.03;;;2.20;99.90;;;;;;5044318;28;20199;-46
2023/01/19 01:24:44;;;;;;;14.97;9.77;;;2.20;99.90;;;;;;5023913;28;20237;-51
2023/01/19 01:27:12;;;;;;;14.73;10.13;;;2.30;99.90;;;;;;5044568;28;20677;-43
2023/01/19 01:29:40;;;;;;;11.20;9.37;;;2.30;99.90;;;;;;5040955;28;20293;-45
2023/01/19 01:32:07;;;;;;;14.67;8.73;;;2.30;99.90;;;;;;5035124;28;20292;-45
2023/01/19 01:34:34;;;;;;;12.93;9.87;;;2.30;99.90;;;;;;5040872;28;20214;-60
2023/01/19 01:37:01;;;;;;;10.80;8.93;;;2.30;99.90;;;;;;5044310;28;20204;-45
2023/01/19 01:39:28;;;;;;;14.27;9.93;;;2.30;99.90;;;;;;5025407;28;20234;-57
2023/01/19 01:41:55;;;;;;;11.23;8.90;;;2.30;99.90;;;;;;5042003;28;20221;-47
2023/01/19 01:44:49;;;;;;;12.33;9.10;;;2.30;99.90;;;;;;5043741;28;20200;-64
2023/01/19 01:47:22;;;;;;;18.07;9.33;;;2.30;99.90;;;;;;5032996;28;20257;-48
2023/01/19 01:49:51;;;;;;;13.83;9.13;;;2.30;99.90;;;;;;5041599;28;21076;-45
2023/01/19 01:52:18;;;;;;;14.73;10.40;;;2.30;99.90;;;;;;5043874;28;20210;-54
2023/01/19 01:54:45;;;;;;;15.83;9.03;;;2.30;99.90;;;;;;5023508;28;20222;-45
2023/01/19 01:57:12;;;;;;;11.70;9.40;;;2.30;99.90;;;;;;5043834;28;20333;-45
2023/01/19 01:59:43;;;;;;;14.43;9.60;;;2.30;99.90;;;;;;5039987;28;20277;-46
2023/01/19 02:05:02;;;;;;;12.50;9.00;;;2.40;99.90;;;;;;5040301;28;20341;-47
2023/01/19 02:13:22;;;;;;;10.87;7.57;;;2.40;99.90;;;;;;5043546;28;20207;-50
2023/01/19 02:15:51;;;;;;;13.93;9.50;;;2.40;99.90;;;;;;5035468;28;20221;-50
2023/01/19 02:18:21;;;;;;;11.47;8.53;;;2.40;99.90;;;;;;5043844;28;20257;-59
2023/01/19 02:20:56;;;;;;;9.07;7.50;;;2.40;99.90;;;;;;5014574;28;20224;-47
2023/01/19 02:23:37;;;;;;;12.63;9.40;;;2.40;99.90;;;;;;5036861;28;20187;-61
2023/01/19 02:26:08;;;;;;;14.30;9.83;;;2.50;99.90;;;;;;5026826;28;20211;-45
2023/01/19 02:28:37;;;;;;;12.00;8.97;;;2.50;99.90;;;;;;5038974;28;20776;-58
2023/01/19 02:31:05;;;;;;;13.20;9.10;;;2.50;99.90;;;;;;5043690;28;20705;-50
2023/01/19 02:33:36;;;;;;;14.10;8.83;;;2.50;99.90;;;;;;5035774;28;20690;-59
2023/01/19 02:36:04;;;;;;;15.43;9.83;;;2.50;99.90;;;;;;5038975;28;20658;-59
2023/01/19 02:38:33;;;;;;;13.77;9.13;;;2.50;99.90;;;;;;5042950;28;20195;-48
2023/01/19 02:41:02;;;;;;;13.20;8.77;;;2.50;99.90;;;;;;5029721;28;20215;-61
2023/01/19 02:43:30;;;;;;;12.20;7.90;;;2.50;99.90;;;;;;5039201;28;20191;-47
2023/01/19 02:45:57;;;;;;;11.30;8.97;;;2.60;99.90;;;;;;5041305;28;20203;-58
2023/01/19 02:48:24;;;;;;;11.83;8.87;;;2.60;99.90;;;;;;5041260;28;20918;-46
2023/01/19 02:50:54;;;;;;;15.43;9.77;;;2.60;99.90;;;;;;5034897;28;20231;-59
2023/01/19 02:53:51;;;;;;;12.67;9.43;;;2.60;99.90;;;;;;5040479;28;20216;-46
2023/01/19 02:56:35;;;;;;;13.07;9.60;;;2.60;99.90;;;;;;5033530;28;20342;-45
2023/01/19 02:59:09;;;;;;;14.43;9.60;;;2.60;99.90;;;;;;5023103;28;20691;-60
2023/01/19 03:01:48;;;;;;;12.23;9.10;;;2.60;99.90;;;;;;5043285;28;20222;-46
2023/01/19 03:04:25;;;;;;;10.40;8.67;;;2.60;99.90;;;;;;5027703;28;20226;-50
2023/01/19 03:07:02;;;;;;;11.90;8.83;;;2.60;99.90;;;;;;5038457;28;20210;-59
2023/01/19 03:09:37;;;;;;;13.77;9.60;;;2.60;99.90;;;;;;5042365;28;20223;-44
2023/01/19 03:12:14;;;;;;;12.73;9.20;;;2.60;99.90;;;;;;5039732;28;20209;-61
2023/01/19 03:14:46;;;;;;;15.30;9.30;;;2.60;99.90;;;;;;5026884;28;20214;-46
2023/01/19 03:17:17;;;;;;;11.67;8.57;;;2.60;99.90;;;;;;5041629;28;20193;-46
2023/01/19 03:19:48;;;;;;;12.33;9.70;;;2.60;99.90;;;;;;5037644;28;20237;-45
2023/01/19 03:22:19;;;;;;;11.90;8.67;;;2.60;99.90;;;;;;5042780;28;20945;-48
2023/01/19 03:24:47;;;;;;;12.07;9.27;;;2.60;99.90;;;;;;5046670;28;20230;-46
2023/01/19 03:27:18;;;;;;;11.07;9.03;;;2.60;99.90;;;;;;5043038;28;20196;-46
2023/01/19 03:29:51;;;;;;;11.67;8.93;;;2.60;99.90;;;;;;5029712;28;20223;-47
2023/01/19 03:32:21;;;;;;;13.47;9.33;;;2.60;99.90;;;;;;5041762;28;20905;-43
2023/01/19 03:34:51;;;;;;;14.20;9.23;;;2.60;99.90;;;;;;5046443;28;20222;-54
2023/01/19 03:37:21;;;;;;;17.57;10.20;;;2.60;99.90;;;;;;5037648;28;20211;-46
2023/01/19 03:39:49;;;;;;;12.63;9.30;;;2.60;99.90;;;;;;5046377;28;20219;-57
2023/01/19 03:42:18;;;;;;;12.73;10.07;;;2.60;99.90;;;;;;5042986;28;20226;-44
2023/01/19 03:44:49;;;;;;;11.90;9.63;;;2.60;99.90;;;;;;5029944;28;20281;-43
2023/01/19 03:47:17;;;;;;;15.97;10.13;;;2.60;99.90;;;;;;5042856;28;20195;-44
2023/01/19 03:49:46;;;;;;;18.33;9.47;;;2.60;99.90;;;;;;5046642;28;20222;-46
2023/01/19 03:52:12;;;;;;;15.07;9.67;;;2.60;99.90;;;;;;5031134;28;20199;-43
2023/01/19 03:54:40;;;;;;;14.13;10.23;;;2.60;99.90;;;;;;5046196;28;20273;-47
2023/01/19 03:57:07;;;;;;;15.63;9.70;;;2.60;99.90;;;;;;5042646;28;20200;-59
2023/01/19 03:59:36;;;;;;;13.50;10.83;;;2.60;99.90;;;;;;5029231;28;20230;-51
2023/01/19 04:02:03;;;;;;;11.50;9.60;;;2.60;99.90;;;;;;5041551;28;20203;-46
2023/01/19 04:04:30;;;;;;;14.53;9.33;;;2.60;99.90;;;;;;5045645;28;20194;-48
2023/01/19 04:06:56;;;;;;;16.50;9.30;;;2.60;99.90;;;;;;5035885;28;20215;-50
2023/01/19 04:09:24;;;;;;;14.80;9.43;;;2.60;99.90;;;;;;5044014;28;20892;-47
2023/01/19 04:11:51;;;;;;;15.10;9.87;;;2.60;99.90;;;;;;5045631;28;20613;-49
2023/01/19 04:14:18;;;;;;;15.53;10.60;;;2.60;99.90;;;;;;5026135;28;20232;-49
2023/01/19 04:16:46;;;;;;;17.40;10.93;;;2.60;99.90;;;;;;5045695;28;20199;-49
2023/01/19 04:19:13;;;;;;;15.43;9.87;;;2.60;99.90;;;;;;5041827;28;20221;-48
2023/01/19 04:21:40;;;;;;;15.50;10.37;;;2.60;99.90;;;;;;5035742;28;20254;-46
2023/01/19 04:24:09;;;;;;;17.67;11.53;;;2.60;99.90;;;;;;5040283;28;20627;-50
2023/01/19 04:26:35;;;;;;;18.63;12.50;;;2.60;99.90;;;;;;5045150;28;20249;-53
2023/01/19 04:29:03;;;;;;;14.27;10.03;;;2.60;99.90;;;;;;5038843;28;20562;-48
2023/01/19 04:31:30;;;;;;;12.80;10.47;;;2.60;99.90;;;;;;5024814;28;20210;-50
2023/01/19 04:33:58;;;;;;;15.33;11.53;;;2.60;99.90;;;;;;5041882;28;20924;-48
2023/01/19 04:36:25;;;;;;;17.17;10.07;;;2.60;99.90;;;;;;5044640;28;20201;-49
2023/01/19 04:38:51;;;;;;;17.80;11.77;;;2.60;99.90;;;;;;5030220;28;20230;-49
2023/01/19 04:41:18;;;;;;;16.30;12.17;;;2.60;99.90;;;;;;5044433;28;20593;-50
2023/01/19 04:43:46;;;;;;;17.83;11.80;;;2.60;99.90;;;;;;5041370;28;20195;-49
2023/01/19 04:46:13;;;;;;;15.27;11.70;;;2.60;99.90;;;;;;5026337;28;20223;-48
2023/01/19 04:48:41;;;;;;;19.20;12.63;;;2.60;99.90;;;;;;5039534;28;20212;-47
2023/01/19 04:51:08;;;;;;;19.00;12.80;;;2.60;99.90;;;;;;5045156;28;20203;-49
2023/01/19 04:53:36;;;;;;;14.57;11.40;;;2.60;99.90;;;;;;5032380;28;20226;-50
2023/01/19 04:56:06;;;;;;;17.33;11.53;;;2.60;99.90;;;;;;5041711;28;20553;-49
2023/01/19 04:58:33;;;;;;;20.03;13.80;;;2.60;99.90;;;;;;5042415;28;20195;-51
2023/01/19 05:01:00;;;;;;;24.67;13.97;;;2.70;99.90;;;;;;5012812;28;20204;-49
2023/01/19 05:03:27;;;;;;;21.17;13.97;;;2.60;99.90;;;;;;5041308;28;20864;-48
2023/01/19 05:05:57;;;;;;;17.47;11.87;;;2.60;99.90;;;;;;5037783;28;20681;-49
2023/01/19 05:08:25;;;;;;;17.00;12.10;;;2.70;99.90;;;;;;5021580;28;20207;-47
2023/01/19 05:10:52;;;;;;;17.40;12.20;;;2.60;99.90;;;;;;5042311;28;20276;-52
2023/01/19 05:13:19;;;;;;;14.63;11.57;;;2.60;99.90;;;;;;5006515;28;20690;-44
2023/01/19 05:15:46;;;;;;;18.23;11.43;;;2.60;99.90;;;;;;5013458;28;20231;-46
2023/01/19 05:18:13;;;;;;;20.30;12.97;;;2.60;99.90;;;;;;5037760;28;20211;-45
2023/01/19 05:20:40;;;;;;;22.67;13.63;;;2.60;99.90;;;;;;5028209;28;20230;-52
2023/01/19 05:23:07;;;;;;;18.90;12.80;;;2.70;99.90;;;;;;5028489;28;20215;-54
2023/01/19 05:25:35;;;;;;;22.53;13.27;;;2.70;99.90;;;;;;5035330;28;20183;-48
2023/01/19 05:28:02;;;;;;;23.43;14.60;;;2.70;99.90;;;;;;5039703;28;20196;-51
2023/01/19 05:30:29;;;;;;;17.07;12.23;;;2.70;99.90;;;;;;5034191;28;20211;-50
2023/01/19 05:32:56;;;;;;;23.07;13.37;;;2.70;99.90;;;;;;5017456;28;20207;-55
2023/01/19 05:35:23;;;;;;;17.47;11.13;;;2.70;99.90;;;;;;5030043;28;20226;-50
2023/01/19 05:37:50;;;;;;;16.00;11.93;;;2.60;99.90;;;;;;5020354;28;20339;-49
2023/01/19 05:40:17;;;;;;;15.17;11.60;;;2.60;99.90;;;;;;5040201;28;20226;-52
2023/01/19 05:42:45;;;;;;;20.83;12.30;;;2.70;99.90;;;;;;5032895;28;20200;-54
2023/01/19 05:45:15;;;;;;;19.30;12.17;;;2.70;99.90;;;;;;5037567;28;20199;-48
2023/01/19 05:47:42;;;;;;;15.17;10.87;;;2.70;99.90;;;;;;5016307;28;20211;-51
2023/01/19 05:50:10;;;;;;;19.10;13.60;;;2.70;99.90;;;;;;5020952;28;20243;-48
2023/01/19 05:52:37;;;;;;;15.07;12.50;;;2.70;99.90;;;;;;5020404;28;20210;-48
2023/01/19 05:55:04;;;;;;;16.03;12.20;;;2.70;99.90;;;;;;5035417;28;20678;-53
2023/01/19 05:57:31;;;;;;;18.57;12.23;;;2.70;99.90;;;;;;5035085;28;20249;-51
2023/01/19 06:00:00;;;;;;;21.27;12.43;;;2.70;99.90;;;;;;5041081;28;20237;-50
2023/01/19 06:02:28;;;;;;;16.37;12.93;;;2.60;99.90;;;;;;5018790;28;20666;-44
2023/01/19 06:04:55;;;;;;;24.27;14.27;;;2.60;99.90;;;;;;5030752;28;20245;-51
2023/01/19 06:07:23;;;;;;;20.30;12.90;;;2.60;99.90;;;;;;5022594;28;20279;-47
2023/01/19 06:09:50;;;;;;;16.60;12.43;;;2.70;99.90;;;;;;5032395;28;20215;-53
2023/01/19 06:12:17;;;;;;;17.37;13.43;;;2.60;99.90;;;;;;5037635;28;20196;-50
2023/01/19 06:14:44;;;;;;;23.83;14.67;;;2.70;99.90;;;;;;5032652;28;20250;-46
2023/01/19 06:17:11;;;;;;;25.17;15.37;;;2.60;99.90;;;;;;5038438;28;20208;-48
2023/01/19 06:19:39;;;;;;;23.07;13.10;;;2.60;99.90;;;;;;5011821;28;20317;-48
2023/01/19 06:22:06;;;;;;;33.30;16.93;;;2.60;99.90;;;;;;5031230;28;20195;-45
2023/01/19 06:24:32;;;;;;;20.50;14.20;;;2.60;99.90;;;;;;5020951;28;20875;-48
2023/01/19 06:27:00;;;;;;;38.33;16.13;;;2.60;99.90;;;;;;5030337;28;20204;-46
2023/01/19 06:29:27;;;;;;;50.80;17.93;;;2.50;99.90;;;;;;5029696;28;20215;-48
2023/01/19 06:31:54;;;;;;;21.30;14.47;;;2.50;99.90;;;;;;5037109;28;20940;-49
2023/01/19 06:34:25;;;;;;;18.73;13.23;;;2.60;99.90;;;;;;5014036;28;20225;-47
2023/01/19 06:36:52;;;;;;;25.87;14.03;;;2.50;99.90;;;;;;5032412;28;20207;-46
2023/01/19 06:39:19;;;;;;;36.27;16.00;;;2.50;99.90;;;;;;5019438;28;20234;-48
2023/01/19 06:41:46;;;;;;;29.10;16.13;;;2.50;99.90;;;;;;5039299;28;20212;-50
2023/01/19 06:44:13;;;;;;;20.10;14.03;;;2.50;99.90;;;;;;5039456;28;20566;-55
2023/01/19 06:46:40;;;;;;;19.47;14.80;;;2.50;99.90;;;;;;5036095;28;20202;-45
2023/01/19 06:49:07;;;;;;;20.50;14.70;;;2.50;99.90;;;;;;5037221;28;20223;-50
2023/01/19 06:51:36;;;;;;;18.30;12.87;;;2.50;99.90;;;;;;5018945;28;20208;-46
2023/01/19 06:54:02;;;;;;;27.43;14.40;;;2.50;99.90;;;;;;5041916;28;20210;-46
2023/01/19 06:56:29;;;;;;;16.43;13.60;;;2.50;99.90;;;;;;5024940;28;20323;-48
2023/01/19 06:58:56;;;;;;;22.63;13.50;;;2.50;99.90;;;;;;5042646;28;20230;-50
2023/01/19 07:01:23;;;;;;;24.97;14.37;;;2.60;99.90;;;;;;5039202;28;20199;-49
2023/01/19 07:03:50;;;;;;;32.43;15.40;;;2.60;99.90;;;;;;5037660;28;20211;-46
2023/01/19 07:06:18;;;;;;;25.37;14.37;;;2.60;99.90;;;;;;5023326;28;20199;-46
2023/01/19 07:08:46;;;;;;;20.17;14.33;;;2.60;99.90;;;;;;5024036;28;20212;-47
2023/01/19 07:11:13;;;;;;;28.40;14.43;;;2.60;99.90;;;;;;5031142;28;20710;-49
2023/01/19 07:13:41;;;;;;;24.20;14.90;;;2.60;99.90;;;;;;5040894;28;20207;-46
2023/01/19 07:16:11;;;;;;;25.03;14.17;;;2.60;99.90;;;;;;5042276;28;20218;-49
2023/01/19 07:18:39;;;;;;;36.93;17.03;;;2.60;99.90;;;;;;5040429;28;20199;-50
2023/01/19 07:21:06;;;;;;;35.10;14.97;;;2.60;99.90;;;;;;5040492;28;20195;-50
2023/01/19 07:23:34;;;;;;;21.90;12.83;;;2.60;99.90;;;;;;5019865;28;20207;-53
2023/01/19 07:26:02;;;;;;;30.80;14.60;;;2.60;99.90;;;;;;5030096;28;20655;-46
2023/01/19 07:28:29;;;;;;;24.67;13.50;;;2.60;99.90;;;;;;5038424;28;20256;-48
2023/01/19 07:30:57;;;;;;;38.07;15.13;;;2.60;99.90;;;;;;5042909;28;20200;-50
2023/01/19 07:33:25;;;;;;;23.60;12.97;;;2.60;99.90;;;;;;5038398;28;20207;-46
2023/01/19 07:35:52;;;;;;;21.27;13.63;;;2.60;99.90;;;;;;5043022;28;20712;-48
2023/01/19 07:38:19;;;;;;;19.43;14.50;;;2.60;99.90;;;;;;5017229;28;20265;-49
2023/01/19 07:40:46;;;;;;;22.43;14.47;;;2.60;99.90;;;;;;5040780;28;20238;-47
2023/01/19 07:43:16;;;;;;;29.30;14.67;;;2.60;99.90;;;;;;5030970;28;20211;-48
2023/01/19 07:45:43;;;;;;;31.20;15.30;;;2.60;99.90;;;;;;5028722;28;20265;-48
2023/01/19 07:48:10;;;;;;;24.60;14.07;;;2.60;99.90;;;;;;5033039;28;20824;-47
2023/01/19 07:50:37;;;;;;;21.43;14.07;;;2.60;99.90;;;;;;5034295;28;20219;-51
2023/01/19 07:53:05;;;;;;;26.93;15.13;;;2.60;99.90;;;;;;5018642;28;25607;-46
2023/01/19 07:55:33;;;;;;;28.17;15.37;;;2.60;99.90;;;;;;5031332;28;20725;-45
2023/01/19 07:57:59;;;;;;;34.20;17.57;;;2.60;99.90;;;;;;5030031;28;20256;-51
2023/01/19 08:00:28;;;;;;;26.77;14.87;;;2.70;99.90;;;;;;5042417;28;20251;-46
2023/01/19 08:02:59;;;;;;;28.20;15.77;;;2.60;99.90;;;;;;5031994;28;20207;-51
2023/01/19 08:05:27;;;;;;;23.90;15.63;;;2.70;99.90;;;;;;5024525;28;20271;-52
2023/01/19 08:07:56;;;;;;;25.47;16.00;;;2.60;99.90;;;;;;5030351;28;20711;-50
2023/01/19 08:10:25;;;;;;;35.87;15.53;;;2.70;99.90;;;;;;5020826;28;21308;-48
2023/01/19 08:12:52;;;;;;;22.67;16.17;;;2.70;99.90;;;;;;5031108;28;20707;-47
2023/01/19 08:15:23;;;;;;;27.37;14.00;;;2.70;99.90;;;;;;5041231;28;20208;-50
2023/01/19 08:18:04;;;;;;;23.93;14.77;;;2.70;99.90;;;;;;5032853;28;20261;-53
2023/01/19 08:20:34;;;;;;;22.43;14.77;;;2.70;99.90;;;;;;5042936;28;20301;-51
2023/01/19 08:23:01;;;;;;;31.50;18.83;;;2.70;99.90;;;;;;5025667;28;20207;-51
2023/01/19 08:25:33;;;;;;;26.47;16.23;;;2.70;99.90;;;;;;5029242;28;20211;-48
2023/01/19 08:28:01;;;;;;;26.80;15.47;;;2.70;99.90;;;;;;5029181;28;20233;-50
2023/01/19 08:30:52;;;;;;;31.47;16.47;;;2.70;99.90;;;;;;5045610;28;20226;-49
2023/01/19 08:33:21;;;;;;;27.37;16.93;;;2.70;99.90;;;;;;5027811;28;20297;-48
2023/01/19 08:35:50;;;;;;;24.97;14.97;;;2.70;99.90;;;;;;5043539;28;20227;-49
2023/01/19 08:38:18;;;;;;;25.23;14.77;;;2.80;99.90;;;;;;5033869;28;20202;-49
2023/01/19 08:40:45;;;;;;;20.23;14.40;;;2.80;99.90;;;;;;5042422;28;20235;-49
2023/01/19 08:43:14;;;;;;;25.30;14.07;;;2.80;99.90;;;;;;5020531;28;20210;-47
2023/01/19 08:45:45;;;;;;;23.63;13.97;;;2.80;99.90;;;;;;5033156;28;20666;-51
2023/01/19 08:48:12;;;;;;;20.00;13.57;;;2.80;99.90;;;;;;5031928;28;20820;-50
2023/01/19 08:50:40;;;;;;;22.13;15.13;;;2.90;99.90;;;;;;5044404;28;20223;-46
2023/01/19 08:53:07;;;;;;;19.67;13.63;;;2.90;99.90;;;;;;5034381;28;20412;-46
2023/01/19 08:55:36;;;;;;;21.13;14.13;;;2.90;99.90;;;;;;5045017;28;20438;-53
2023/01/19 08:58:04;;;;;;;25.27;14.57;;;2.90;99.90;;;;;;5016770;28;20294;-50
2023/01/19 09:00:32;;;;;;;19.53;13.97;;;2.90;99.90;;;;;;5031597;28;20232;-50
2023/01/19 09:03:00;;;;;;;18.97;13.33;;;2.90;99.90;;;;;;5033023;28;20207;-51
2023/01/19 09:05:27;;;;;;;17.23;13.33;;;2.90;99.90;;;;;;5040523;28;20199;-49
2023/01/19 09:07:55;;;;;;;22.53;13.47;;;3.00;99.90;;;;;;5022545;28;20246;-50
2023/01/19 09:10:22;;;;;;;21.53;13.47;;;3.00;99.90;;;;;;5015826;28;20219;-48
2023/01/19 09:12:49;;;;;;;16.77;12.00;;;3.00;99.90;;;;;;5023910;28;20203;-52
2023/01/19 09:15:16;;;;;;;18.80;13.10;;;3.00;99.90;;;;;;5026443;28;20246;-52
2023/01/19 09:17:43;;;;;;;20.50;11.67;;;3.00;99.90;;;;;;5030455;28;20209;-49
2023/01/19 09:20:10;;;;;;;17.33;12.77;;;3.00;99.90;;;;;;5029991;28;20219;-51
2023/01/19 09:22:38;;;;;;;26.10;16.03;;;3.00;99.90;;;;;;5035083;28;20679;-46
2023/01/19 09:25:07;;;;;;;19.20;13.27;;;3.00;99.90;;;;;;5034657;28;20282;-48
2023/01/19 09:27:34;;;;;;;20.40;13.97;;;3.00;99.90;;;;;;5022824;28;20207;-50
2023/01/19 09:30:02;;;;;;;23.83;13.33;;;3.00;99.90;;;;;;5030847;28;20301;-45
2023/01/19 09:32:29;;;;;;;21.17;13.53;;;3.00;99.90;;;;;;5035573;28;20261;-46
2023/01/19 09:34:56;;;;;;;20.47;13.07;;;3.00;99.90;;;;;;5037642;28;20206;-48
2023/01/19 09:37:23;;;;;;;19.10;11.67;;;3.00;99.90;;;;;;5039187;28;20613;-46
2023/01/19 09:39:50;;;;;;;31.10;14.97;;;3.00;99.90;;;;;;5032542;28;20302;-49
2023/01/19 09:42:26;;;;;;;14.27;11.77;;;3.00;99.90;;;;;;5035019;28;20199;-45
2023/01/19 09:44:53;;;;;;;19.83;13.13;;;3.00;99.90;;;;;;5018122;28;20218;-48
2023/01/19 09:47:26;;;;;;;21.20;14.07;;;3.10;99.90;;;;;;5034740;28;21026;-46
2023/01/19 09:49:58;;;;;;;20.40;13.23;;;3.10;99.90;;;;;;5034180;28;20243;-47
2023/01/19 09:52:25;;;;;;;26.67;15.07;;;3.10;99.90;;;;;;5042332;28;20199;-49
2023/01/19 09:54:54;;;;;;;28.83;15.30;;;3.20;99.90;;;;;;5039965;28;20203;-53
2023/01/19 09:57:26;;;;;;;20.40;14.90;;;3.10;99.90;;;;;;5037558;28;20219;-48
2023/01/19 09:59:58;;;;;;;28.63;15.77;;;3.20;99.90;;;;;;5020502;28;20230;-47
2023/01/19 10:02:35;;;;;;;16.10;11.27;;;3.20;99.90;;;;;;5041110;28;20923;-49
2023/01/19 10:05:05;;;;;;;21.00;13.53;;;3.20;99.90;;;;;;5026539;28;20203;-50
2023/01/19 10:07:57;;;;;;;23.17;14.57;;;3.20;99.90;;;;;;5042017;28;20935;-48
2023/01/19 10:10:26;;;;;;;26.13;15.00;;;3.20;99.90;;;;;;5041505;28;20709;-50
2023/01/19 10:13:27;;;;;;;23.97;14.13;;;3.20;99.90;;;;;;5034146;28;21056;-48
2023/01/19 10:16:03;;;;;;;30.43;15.87;;;3.20;99.90;;;;;;5024446;28;20310;-52
2023/01/19 10:18:46;;;;;;;25.97;15.93;;;3.30;99.90;;;;;;5036322;28;20198;-48
2023/01/19 10:21:17;;;;;;;24.30;15.03;;;3.30;99.90;;;;;;5032335;28;20933;-47
2023/01/19 10:23:47;;;;;;;28.77;14.13;;;3.30;99.90;;;;;;5039956;28;20780;-46
2023/01/19 10:26:17;;;;;;;21.30;13.73;;;3.30;99.90;;;;;;5032736;28;20214;-47
2023/01/19 10:28:49;;;;;;;19.63;13.10;;;3.30;99.90;;;;;;5035294;28;20200;-47
2023/01/19 10:31:20;;;;;;;22.97;14.37;;;3.40;99.90;;;;;;5023361;28;20722;-44
2023/01/19 10:33:49;;;;;;;20.00;13.50;;;3.40;99.90;;;;;;5035455;28;20204;-51
2023/01/19 10:36:18;;;;;;;18.20;13.10;;;3.40;99.90;;;;;;5028265;28;20222;-48
2023/01/19 10:38:46;;;;;;;33.10;16.63;;;3.50;99.90;;;;;;5039815;28;20208;-50
2023/01/19 10:41:21;;;;;;;26.13;15.00;;;3.50;99.90;;;;;;5033500;28;20954;-46
2023/01/19 10:43:58;;;;;;;23.93;12.80;;;3.50;99.90;;;;;;5029720;28;20265;-49
2023/01/19 10:46:34;;;;;;;16.77;11.20;;;3.50;99.90;;;;;;5035527;28;20675;-45
2023/01/19 10:49:02;;;;;;;25.50;14.33;;;3.50;99.90;;;;;;5019567;28;20222;-49
2023/01/19 10:51:28;;;;;;;21.93;14.17;;;3.40;99.90;;;;;;5031111;28;20215;-48
2023/01/19 10:54:01;;;;;;;26.93;13.07;;;3.40;99.90;;;;;;5034107;28;20692;-48
2023/01/19 10:56:32;;;;;;;20.63;13.03;;;3.40;99.90;;;;;;5035322;28;20221;-49
2023/01/19 10:59:03;;;;;;;22.60;13.07;;;3.40;99.90;;;;;;5032484;28;20223;-48
2023/01/19 11:01:34;;;;;;;30.90;13.87;;;3.40;99.90;;;;;;5041081;28;20212;-46
2023/01/19 11:04:18;;;;;;;21.80;13.30;;;3.40;99.90;;;;;;5012785;28;20277;-48
2023/01/19 11:06:45;;;;;;;31.97;15.63;;;3.40;99.90;;;;;;5026270;28;20763;-45
2023/01/19 11:09:17;;;;;;;30.23;14.97;;;3.40;99.90;;;;;;5040176;28;20319;-45
2023/01/19 11:11:46;;;;;;;18.37;13.40;;;3.40;99.90;;;;;;5027520;28;20685;-48
2023/01/19 11:14:20;;;;;;;18.03;13.87;;;3.40;99.90;;;;;;5032958;28;20337;-50
2023/01/19 11:16:50;;;;;;;16.10;12.00;;;3.40;99.90;;;;;;5035290;28;20304;-46
2023/01/19 11:19:25;;;;;;;19.07;13.47;;;3.40;99.90;;;;;;5023190;28;20222;-50
2023/01/19 11:21:53;;;;;;;18.93;13.53;;;3.40;99.90;;;;;;5038891;28;20665;-51
2023/01/19 11:24:20;;;;;;;18.63;13.60;;;3.40;99.90;;;;;;5032179;28;20274;-47
2023/01/19 11:26:49;;;;;;;23.73;13.83;;;3.40;99.90;;;;;;5028067;28;20222;-49
2023/01/19 11:29:20;;;;;;;24.60;14.03;;;3.40;99.90;;;;;;5026011;28;20311;-48
2023/01/19 11:31:47;;;;;;;24.37;12.83;;;3.40;99.90;;;;;;5033416;28;20196;-48
2023/01/19 11:34:24;;;;;;;22.83;14.10;;;3.40;99.90;;;;;;5017236;28;20230;-51
2023/01/19 11:36:57;;;;;;;22.10;14.27;;;3.50;99.90;;;;;;5043116;28;20221;-47
2023/01/19 11:39:26;;;;;;;19.47;13.73;;;3.40;99.90;;;;;;5036465;28;20877;-49
2023/01/19 11:41:56;;;;;;;23.77;13.73;;;3.40;99.90;;;;;;5035450;28;20203;-50
2023/01/19 11:44:29;;;;;;;17.93;13.13;;;3.50;99.90;;;;;;5039699;28;20207;-45
2023/01/19 11:46:58;;;;;;;14.07;11.77;;;3.50;99.90;;;;;;5030459;28;20199;-51
2023/01/19 11:49:36;;;;;;;20.73;13.73;;;3.50;99.90;;;;;;5031327;28;20233;-46
2023/01/19 11:52:09;;;;;;;17.40;12.10;;;3.50;99.90;;;;;;5028479;28;20404;-50
2023/01/19 11:54:41;;;;;;;32.93;13.97;;;3.50;99.90;;;;;;5036510;28;20207;-50
2023/01/19 11:57:14;;;;;;;18.87;12.13;;;3.50;99.90;;;;;;5034736;28;20215;-47
2023/01/19 11:59:43;;;;;;;21.73;13.13;;;3.50;99.90;;;;;;5033761;28;20533;-49
2023/01/19 12:02:20;;;;;;;18.77;12.80;;;3.50;99.90;;;;;;5027155;28;20896;-47
2023/01/19 12:04:48;;;;;;;17.13;11.93;;;3.50;99.90;;;;;;5046372;28;20210;-46
2023/01/19 12:07:23;;;;;;;22.37;12.90;;;3.50;99.90;;;;;;5025248;28;20208;-49
2023/01/19 12:10:23;;;;;;;18.30;12.27;;;3.50;99.90;;;;;;5030979;28;20261;-51
2023/01/19 12:12:52;;;;;;;22.20;12.20;;;3.60;99.90;;;;;;5040598;28;20561;-44
2023/01/19 12:15:26;;;;;;;18.87;12.60;;;3.60;99.90;;;;;;5033730;28;20972;-49
2023/01/19 12:17:59;;;;;;;16.70;11.77;;;3.60;99.90;;;;;;5045474;28;20681;-47
2023/01/19 12:20:30;;;;;;;17.33;12.03;;;3.60;99.90;;;;;;5024880;28;20659;-45
2023/01/19 12:23:06;;;;;;;23.57;14.03;;;3.70;99.90;;;;;;5045464;28;20195;-49
2023/01/19 12:25:45;;;;;;;25.07;13.67;;;3.70;99.90;;;;;;5031191;28;20219;-44
2023/01/19 12:28:15;;;;;;;19.67;11.37;;;3.70;99.90;;;;;;5032937;28;20202;-51
2023/01/19 12:30:44;;;;;;;22.83;12.50;;;3.70;99.90;;;;;;5028294;28;20675;-46
2023/01/19 12:33:35;;;;;;;20.73;12.70;;;3.80;99.90;;;;;;5033861;28;20199;-53
2023/01/19 12:36:10;;;;;;;21.93;12.80;;;3.80;99.90;;;;;;5024143;28;20218;-51
2023/01/19 12:38:51;;;;;;;22.40;12.13;;;3.80;99.90;;;;;;5034238;28;20266;-44
2023/01/19 12:41:21;;;;;;;21.07;11.97;;;3.80;99.90;;;;;;5033725;28;20203;-47
2023/01/19 12:44:09;;;;;;;25.17;13.93;;;3.80;99.90;;;;;;5030582;28;20294;-44
2023/01/19 12:46:40;;;;;;;21.50;12.73;;;3.80;99.90;;;;;;5033925;28;20191;-47
2023/01/19 12:49:18;;;;;;;31.93;15.37;;;3.80;99.90;;;;;;5028924;28;20740;-47
2023/01/19 12:51:45;;;;;;;18.43;12.17;;;3.70;99.90;;;;;;5027825;28;20225;-51
2023/01/19 12:54:20;;;;;;;16.80;11.60;;;3.70;99.90;;;;;;5039750;28;20188;-49
2023/01/19 12:56:47;;;;;;;22.57;12.50;;;3.70;99.90;;;;;;5039591;28;20697;-49
2023/01/19 12:59:24;;;;;;;16.73;12.37;;;3.70;99.90;;;;;;5034203;28;20222;-52
2023/01/19 13:02:28;;;;;;;19.60;13.20;;;3.70;99.90;;;;;;5034522;28;20219;-51